Time;durP1;ratioP1;P1;durP2;ratioP2;P2;SDS_P1;SDS_P2;PMS_P1;PMS_P2;Temp;Humidity;BMP_temperature;BMP_pressure;BME280_temperature;BME280_humidity;BME280_pressure;Samples;Min_cycle;Max_cycle;Signal;HPM_P1;HPM_P2
2020/12/18 00:03:06;;;;;;;13.68;7.05;;;;;;;4.04;100.00;101664.13;10523857;28;20052;-71
2020/12/18 00:08:08;;;;;;;11.65;6.97;;;;;;;4.00;100.00;101662.41;10523966;28;20492;-71
2020/12/18 00:13:09;;;;;;;10.63;6.82;;;;;;;4.01;100.00;101664.16;10515526;28;20043;-71
2020/12/18 00:18:10;;;;;;;9.60;5.97;;;;;;;3.81;100.00;101661.53;10516034;28;20430;-71
2020/12/18 00:23:25;;;;;;;15.40;7.72;;;;;;;4.04;100.00;101671.09;10525094;28;20036;-71
2020/12/18 00:28:27;;;;;;;10.82;7.50;;;;;;;4.24;100.00;101684.13;10545680;28;20089;-72
2020/12/18 00:33:28;;;;;;;10.45;6.20;;;;;;;4.14;100.00;101667.63;10507262;28;20044;-71
2020/12/18 00:38:29;;;;;;;10.85;6.47;;;;;;;4.19;100.00;101679.75;10510548;28;20063;-71
2020/12/18 00:43:31;;;;;;;18.85;8.93;;;;;;;4.24;100.00;101686.72;10538182;28;20086;-71
2020/12/18 00:48:33;;;;;;;12.18;7.78;;;;;;;4.14;100.00;101688.47;10504273;28;20060;-71
2020/12/18 00:53:44;;;;;;;9.90;6.80;;;;;;;4.21;100.00;101692.81;10504415;28;20094;-71
2020/12/18 00:58:46;;;;;;;12.23;7.40;;;;;;;4.09;100.00;101677.19;10514785;28;20040;-71
2020/12/18 01:03:51;;;;;;;11.00;7.70;;;;;;;3.97;100.00;101670.22;10543934;28;20036;-71
2020/12/18 01:08:53;;;;;;;10.98;7.15;;;;;;;3.59;100.00;101656.31;10512480;28;20043;-71
2020/12/18 01:13:59;;;;;;;13.05;7.65;;;;;;;3.63;100.00;101666.75;10499590;28;20057;-71
2020/12/18 01:19:01;;;;;;;14.90;7.78;;;;;;;3.52;100.00;101670.19;10501596;28;20448;-71
2020/12/18 01:24:07;;;;;;;10.50;7.10;;;;;;;3.63;100.00;101681.50;10502065;28;20494;-71
2020/12/18 01:29:13;;;;;;;11.77;7.22;;;;;;;3.69;100.00;101690.19;10543050;28;20051;-71
2020/12/18 01:34:16;;;;;;;12.15;6.45;;;;;;;3.75;100.00;101699.78;10541211;28;20060;-71
2020/12/18 01:39:18;;;;;;;14.02;6.10;;;;;;;3.94;100.00;101709.31;10500085;28;20045;-71
2020/12/18 01:44:20;;;;;;;15.73;6.78;;;;;;;4.00;100.00;101701.53;10500599;28;20473;-72
2020/12/18 01:49:26;;;;;;;9.93;6.45;;;;;;;4.14;100.00;101709.34;10511225;28;20040;-71
2020/12/18 01:54:29;;;;;;;7.72;5.50;;;;;;;3.79;100.00;101691.94;10541866;28;20094;-71
2020/12/18 01:59:30;;;;;;;10.35;5.90;;;;;;;4.14;100.00;101718.03;10535024;28;20124;-71
2020/12/18 02:04:49;;;;;;;12.30;5.65;;;;;;;4.15;100.00;101693.69;10521262;28;20423;-71
2020/12/18 02:09:53;;;;;;;11.02;5.40;;;;;;;4.08;100.00;101685.88;10513008;28;20123;-71
2020/12/18 02:14:59;;;;;;;8.15;5.07;;;;;;;3.95;100.00;101671.97;10517239;28;20517;-71
2020/12/18 02:20:14;;;;;;;10.67;5.57;;;;;;;3.94;100.00;101670.22;10539931;28;20052;-71
2020/12/18 02:25:22;;;;;;;9.02;5.30;;;;;;;3.85;100.00;101678.03;10540245;28;20087;-71
2020/12/18 02:30:23;;;;;;;;;;;;;;;3.81;100.00;101665.88;10513161;28;20048;-71
2020/12/18 02:35:43;;;;;;;8.95;4.75;;;;;;;3.55;100.00;101646.75;10523830;28;19920;-71
2020/12/18 02:40:45;;;;;;;9.90;6.20;;;;;;;3.54;100.00;101653.69;10497874;28;20080;-71
2020/12/18 02:46:05;;;;;;;10.52;6.55;;;;;;;3.55;100.00;101660.66;10515296;28;20084;-72
2020/12/18 02:51:12;;;;;;;11.35;6.47;;;;;;;3.61;100.00;101665.84;10507280;28;20060;-71
2020/12/18 02:56:26;;;;;;;10.13;7.05;;;;;;;3.53;100.00;101661.50;10510066;28;20097;-72
2020/12/18 03:01:47;;;;;;;15.10;8.15;;;;;;;3.46;100.00;101665.84;10540433;28;20139;-71
2020/12/18 03:06:48;;;;;;;16.55;9.05;;;;;;;3.40;100.00;101658.91;10522607;28;20059;-71
2020/12/18 03:11:50;;;;;;;10.60;7.85;;;;;;;3.40;100.00;101674.53;10530766;28;20055;-71
2020/12/18 03:16:51;;;;;;;17.25;8.10;;;;;;;3.44;100.00;101672.78;10520015;28;20498;-71
2020/12/18 03:22:01;;;;;;;15.00;7.95;;;;;;;3.37;100.00;101686.66;10496817;28;20061;-71
2020/12/18 03:27:28;;;;;;;12.88;7.85;;;;;;;3.27;100.00;101677.06;10509380;28;20062;-71
2020/12/18 03:32:38;;;;;;;13.10;8.05;;;;;;;3.08;100.00;101672.69;10499456;28;20079;-71
2020/12/18 03:37:46;;;;;;;13.07;7.57;;;;;;;3.08;100.00;101676.16;10496575;28;20061;-71
2020/12/18 03:42:52;;;;;;;11.90;8.27;;;;;;;3.10;100.00;101686.59;10520822;28;20068;-71
2020/12/18 03:47:58;;;;;;;17.33;8.85;;;;;;;3.10;100.00;101686.59;10504702;28;20419;-71
2020/12/18 03:53:06;;;;;;;11.27;7.13;;;;;;;3.05;100.00;101684.84;10501026;28;20055;-71
2020/12/18 03:58:10;;;;;;;15.60;7.93;;;;;;;3.07;100.00;101676.16;10504282;28;20071;-71
2020/12/18 04:03:41;;;;;;;13.48;9.00;;;;;;;3.14;100.00;101677.91;10515950;28;20048;-71
2020/12/18 04:08:45;;;;;;;12.88;8.68;;;;;;;3.09;100.00;101672.72;10523407;28;20052;-71
2020/12/18 04:14:08;;;;;;;11.98;7.78;;;;;;;2.98;100.00;101671.78;10529252;28;20048;-71
2020/12/18 04:19:31;;;;;;;10.75;6.68;;;;;;;2.95;100.00;101682.19;10529183;28;20165;-71
2020/12/18 04:24:32;;;;;;;12.82;9.10;;;;;;;2.93;100.00;101673.53;10505855;28;20044;-72
2020/12/18 04:29:34;;;;;;;17.52;9.38;;;;;;;2.92;100.00;101670.03;10504606;28;20643;-71
2020/12/18 04:34:36;;;;;;;15.82;9.70;;;;;;;2.93;100.00;101666.53;10505681;28;20094;-71
2020/12/18 04:39:59;;;;;;;15.15;10.90;;;;;;;2.94;100.00;101665.69;10509760;28;20520;-71
2020/12/18 04:45:05;;;;;;;11.68;9.60;;;;;;;2.87;100.00;101666.53;10535508;28;20056;-71
2020/12/18 04:50:09;;;;;;;18.83;10.70;;;;;;;2.84;100.00;101656.13;10502802;28;20461;-71
2020/12/18 04:55:21;;;;;;;15.05;8.75;;;;;;;2.96;100.00;101671.78;10519019;28;20055;-71
2020/12/18 05:00:53;;;;;;;17.42;9.75;;;;;;;2.88;100.00;101662.19;10538746;28;20052;-71
2020/12/18 05:06:12;;;;;;;14.88;10.70;;;;;;;2.77;100.00;101651.72;10487418;28;20476;-72
2020/12/18 05:11:27;;;;;;;16.85;9.13;;;;;;;2.85;100.00;101659.56;10522257;28;20044;-71
2020/12/18 05:16:46;;;;;;;15.18;9.85;;;;;;;2.81;100.00;101650.03;10511284;28;20044;-71
2020/12/18 05:21:53;;;;;;;15.45;9.93;;;;;;;2.64;100.00;101653.44;10499937;28;20452;-71
2020/12/18 05:27:14;;;;;;;16.63;9.55;;;;;;;2.85;100.00;101657.84;10501753;28;20052;-71
2020/12/18 05:32:16;;;;;;;14.60;9.02;;;;;;;2.87;100.00;101657.84;10502016;28;20071;-71
2020/12/18 05:37:39;;;;;;;10.65;9.15;;;;;;;2.70;100.00;101639.56;10523921;28;20582;-71
2020/12/18 05:43:07;;;;;;;18.30;9.45;;;;;;;2.58;100.00;101655.13;10518821;28;20097;-71
2020/12/18 05:48:15;;;;;;;14.63;9.23;;;;;;;2.72;100.00;101639.59;10524946;28;20142;-71
2020/12/18 05:53:39;;;;;;;15.40;9.98;;;;;;;2.74;100.00;101633.53;10529235;28;20060;-71
2020/12/18 05:58:52;;;;;;;13.63;9.68;;;;;;;2.68;100.00;101641.28;10541555;28;20399;-71
2020/12/18 06:04:25;;;;;;;14.82;10.07;;;;;;;2.60;100.00;101638.66;10520008;28;20041;-71
2020/12/18 06:09:35;;;;;;;13.32;9.27;;;;;;;2.76;100.00;101643.94;10514699;28;20032;-71
2020/12/18 06:14:36;;;;;;;15.57;8.40;;;;;;;2.86;100.00;101630.97;10538887;28;20037;-71
2020/12/18 06:19:45;;;;;;;14.32;8.85;;;;;;;3.04;100.00;101646.66;10508446;28;20109;-71
2020/12/18 06:24:53;;;;;;;12.65;8.63;;;;;;;2.89;100.00;101627.50;10512209;28;20414;-71
2020/12/18 06:30:13;;;;;;;13.93;9.50;;;;;;;2.88;100.00;101639.66;10501417;28;20049;-71
2020/12/18 06:35:36;;;;;;;14.60;8.70;;;;;;;2.85;100.00;101638.75;10514410;28;20052;-71
2020/12/18 06:41:24;;;;;;;17.75;9.45;;;;;;;2.87;100.00;101629.22;10494955;28;20049;-71
2020/12/18 06:47:06;;;;;;;14.98;8.25;;;;;;;2.90;100.00;101631.84;10506969;28;20055;-71
2020/12/18 06:52:41;;;;;;;14.38;8.50;;;;;;;2.94;100.00;101630.97;10502171;28;20368;-71
2020/12/18 06:57:42;;;;;;;19.40;8.23;;;;;;;2.92;100.00;101632.72;10537703;28;20044;-71
2020/12/18 07:02:43;;;;;;;17.77;9.43;;;;;;;3.05;100.00;101634.50;10508261;28;20047;-71
2020/12/18 07:07:48;;;;;;;15.63;9.48;;;;;;;2.90;100.00;101635.31;10499394;28;20048;-71
2020/12/18 07:12:50;;;;;;;13.40;8.57;;;;;;;2.93;100.00;101637.09;10518156;28;20434;-71
2020/12/18 07:17:55;;;;;;;17.08;8.73;;;;;;;2.64;100.00;101618.75;10529671;28;20044;-71
2020/12/18 07:22:56;;;;;;;14.77;8.57;;;;;;;2.75;100.00;101626.59;10516494;28;20415;-71
2020/12/18 07:27:57;;;;;;;16.38;8.55;;;;;;;2.80;100.00;101614.47;10499232;28;20048;-71
2020/12/18 07:32:59;;;;;;;15.50;8.25;;;;;;;2.90;100.00;101617.09;10525973;28;20471;-71
2020/12/18 07:38:00;;;;;;;15.27;9.10;;;;;;;2.93;100.00;101611.06;10509961;28;20468;-71
2020/12/18 07:43:06;;;;;;;14.07;9.23;;;;;;;3.05;100.00;101613.69;10504469;28;20055;-71
2020/12/18 07:48:11;;;;;;;14.20;9.02;;;;;;;3.32;100.00;101611.13;10538543;28;20052;-71
2020/12/18 07:53:13;;;;;;;16.10;9.15;;;;;;;3.78;100.00;101616.34;10508682;28;20046;-71
2020/12/18 07:58:14;;;;;;;13.93;8.77;;;;;;;3.84;100.00;101611.16;10514390;28;20044;-71
2020/12/18 08:03:17;;;;;;;14.15;9.05;;;;;;;4.13;100.00;101611.97;10539077;28;20040;-71
2020/12/18 08:08:19;;;;;;;10.95;7.00;;;;;;;4.36;100.00;101613.66;10506672;28;20429;-71
2020/12/18 08:13:28;;;;;;;15.57;8.23;;;;;;;4.67;100.00;101604.00;10521380;28;20063;-71
2020/12/18 08:18:30;;;;;;;11.65;7.18;;;;;;;5.92;100.00;101594.47;10538660;28;20040;-71
2020/12/18 08:23:34;;;;;;;16.30;8.45;;;;;;;6.44;100.00;101571.22;10507500;28;20036;-71
2020/12/18 08:28:36;;;;;;;15.65;6.80;;;;;;;6.82;100.00;101544.56;10531341;28;20048;-71
2020/12/18 08:33:47;;;;;;;10.77;7.63;;;;;;;6.69;100.00;101506.34;10496778;28;20041;-71
2020/12/18 08:39:06;;;;;;;12.32;7.45;;;;;;;6.93;100.00;101484.19;10503258;28;20446;-71
2020/12/18 08:44:09;;;;;;;13.55;6.75;;;;;;;7.29;100.00;101498.44;10518995;28;20059;-71
2020/12/18 08:49:22;;;;;;;12.05;7.55;;;;;;;6.94;100.00;101480.69;10536902;28;20080;-71
2020/12/18 08:54:31;;;;;;;12.27;7.93;;;;;;;6.56;100.00;101485.59;10526616;28;20487;-71
2020/12/18 08:59:32;;;;;;;11.27;7.45;;;;;;;6.56;100.00;101489.06;10525944;28;20437;-70
2020/12/18 09:04:33;;;;;;;12.63;7.13;;;;;;;6.73;100.00;101491.44;10523282;28;20040;-71
2020/12/18 09:09:34;;;;;;;11.82;7.70;;;;;;;6.83;100.00;101490.44;10539034;28;20044;-70
2020/12/18 09:14:35;;;;;;;9.32;6.68;;;;;;;8.68;100.00;101508.03;10545289;28;20043;-71
2020/12/18 09:19:48;;;;;;;11.25;5.97;;;;;;;9.07;100.00;101485.22;10538531;28;20082;-70
2020/12/18 09:25:01;;;;;;;8.70;5.35;;;;;;;9.17;100.00;101483.25;10541756;28;20051;-70
2020/12/18 09:30:06;;;;;;;10.73;6.47;;;;;;;8.46;100.00;101477.84;10532430;28;20040;-70
2020/12/18 09:35:07;;;;;;;11.63;7.05;;;;;;;7.30;100.00;101454.75;10504196;28;20407;-71
2020/12/18 09:40:08;;;;;;;8.63;6.63;;;;;;;6.89;100.00;101482.47;10512883;28;20053;-70
2020/12/18 09:45:09;;;;;;;10.27;7.20;;;;;;;6.78;100.00;101493.09;10518789;28;20048;-71
2020/12/18 09:50:10;;;;;;;12.07;8.30;;;;;;;6.85;100.00;101507.00;10517648;28;20051;-70
2020/12/18 09:55:18;;;;;;;9.40;6.82;;;;;;;8.02;100.00;101536.50;10524838;28;20040;-70
2020/12/18 10:00:19;;;;;;;9.60;6.97;;;;;;;8.96;100.00;101518.75;10520212;28;20032;-70
2020/12/18 10:05:20;;;;;;;9.43;6.97;;;;;;;8.16;100.00;101496.84;10549720;28;20055;-70
2020/12/18 10:10:22;;;;;;;10.95;7.15;;;;;;;8.48;100.00;101512.84;10532878;28;20049;-70
2020/12/18 10:15:23;;;;;;;12.50;6.95;;;;;;;8.13;100.00;101494.28;10510991;28;20071;-70
2020/12/18 10:20:25;;;;;;;9.55;6.88;;;;;;;7.58;100.00;101492.72;10521374;28;20484;-70
2020/12/18 10:25:26;;;;;;;10.48;6.53;;;;;;;7.92;100.00;101511.31;10523115;28;20040;-70
2020/12/18 10:30:27;;;;;;;10.30;5.78;;;;;;;8.54;100.00;101502.19;10510866;28;20035;-70
2020/12/18 10:35:28;;;;;;;13.60;6.30;;;;;;;9.89;100.00;101501.50;10517437;28;20044;-70
2020/12/18 10:40:32;;;;;;;8.35;5.90;;;;;;;10.18;100.00;101490.22;10510826;28;20550;-70
2020/12/18 10:45:33;;;;;;;8.30;6.35;;;;;;;10.65;100.00;101499.34;10507419;28;20078;-70
2020/12/18 10:50:34;;;;;;;9.30;6.43;;;;;;;11.09;100.00;101489.19;10535315;28;20458;-70
2020/12/18 10:55:35;;;;;;;10.27;6.47;;;;;;;11.62;100.00;101495.34;10510891;28;20036;-70
2020/12/18 11:00:36;;;;;;;13.43;7.63;;;;;;;11.36;100.00;101474.25;10496926;28;20040;-70
2020/12/18 11:05:37;;;;;;;9.30;5.65;;;;;;;11.61;100.00;101479.56;10498111;28;20044;-70
2020/12/18 11:10:39;;;;;;;11.55;7.25;;;;;;;11.91;100.00;101469.72;10497656;28;20037;-70
2020/12/18 11:15:43;;;;;;;10.48;7.32;;;;;;;12.37;98.18;101453.03;10519227;28;20047;-70
2020/12/18 11:20:44;;;;;;;11.37;6.73;;;;;;;12.27;94.52;101446.38;10536682;28;20510;-70
2020/12/18 11:25:45;;;;;;;12.82;6.50;;;;;;;12.71;95.15;101440.25;10512311;28;20512;-70
2020/12/18 11:30:46;;;;;;;12.70;6.70;;;;;;;12.65;93.38;101423.72;10536724;28;20058;-70
2020/12/18 11:35:47;;;;;;;11.25;7.05;;;;;;;12.66;94.01;101426.31;10530932;28;20036;-70
2020/12/18 11:40:48;;;;;;;8.13;5.65;;;;;;;12.51;93.06;101403.16;10514582;28;20048;-70
2020/12/18 11:45:50;;;;;;;9.45;6.15;;;;;;;12.51;92.23;101408.44;10496733;28;20060;-70
2020/12/18 11:50:51;;;;;;;10.38;6.85;;;;;;;12.99;91.46;101402.94;10520426;28;20106;-70
2020/12/18 11:55:52;;;;;;;9.70;5.47;;;;;;;12.44;91.44;101372.59;10531655;28;20040;-70
2020/12/18 12:00:53;;;;;;;10.32;6.13;;;;;;;12.42;93.98;101375.28;10538648;28;20043;-70
2020/12/18 12:05:55;;;;;;;9.48;5.60;;;;;;;11.58;98.17;101361.75;10523433;28;20051;-70
2020/12/18 12:10:56;;;;;;;11.40;7.00;;;;;;;12.04;100.00;101376.78;10515829;28;20044;-70
2020/12/18 12:15:57;;;;;;;10.00;6.07;;;;;;;12.14;97.33;101359.66;10516344;28;20541;-70
2020/12/18 12:20:58;;;;;;;9.40;6.47;;;;;;;12.87;94.80;101366.44;10546981;28;20431;-70
2020/12/18 12:25:59;;;;;;;8.75;5.97;;;;;;;12.64;94.56;101337.41;10508234;28;20051;-70
2020/12/18 12:36:22;;;;;;;8.38;6.13;;;;;;;12.74;93.67;101314.97;10158937;29;20316;-69
2020/12/18 12:41:24;;;;;;;16.17;6.18;;;;;;;12.66;94.04;101311.78;10175988;29;20044;-70
2020/12/18 12:46:25;;;;;;;9.50;6.40;;;;;;;12.30;97.56;101300.94;10179384;29;20044;-69
2020/12/18 12:51:26;;;;;;;9.70;5.85;;;;;;;12.28;99.47;101285.16;10179764;29;20472;-70
2020/12/18 12:56:27;;;;;;;9.38;5.22;;;;;;;11.82;100.00;101272.88;10179612;29;20075;-69
2020/12/18 13:01:32;;;;;;;10.07;6.22;;;;;;;12.12;100.00;101234.72;10180458;29;20048;-69
2020/12/18 13:06:33;;;;;;;8.38;5.38;;;;;;;11.67;100.00;101226.81;10178937;29;20059;-69
2020/12/18 13:11:39;;;;;;;9.93;5.28;;;;;;;11.84;100.00;101225.31;10179882;29;20044;-69
2020/12/18 13:16:40;;;;;;;6.65;5.00;;;;;;;11.73;100.00;101218.63;10178890;29;20044;-69
2020/12/18 13:21:41;;;;;;;8.88;5.55;;;;;;;11.58;100.00;101207.81;10178291;29;20413;-69
2020/12/18 13:26:42;;;;;;;8.13;5.88;;;;;;;11.68;100.00;101212.69;10177842;29;20040;-70
2020/12/18 13:31:43;;;;;;;8.77;5.68;;;;;;;11.52;100.00;101201.00;10175140;29;20058;-70
2020/12/18 13:36:45;;;;;;;8.20;4.80;;;;;;;11.26;100.00;101198.50;10140152;29;20052;-69
2020/12/18 13:41:47;;;;;;;8.45;4.82;;;;;;;10.89;100.00;101183.16;10139185;29;20458;-69
2020/12/18 13:46:48;;;;;;;8.75;5.32;;;;;;;9.57;100.00;101170.06;10138872;29;20490;-69
2020/12/18 13:51:49;;;;;;;7.85;5.13;;;;;;;9.10;100.00;101184.63;10139356;29;20065;-70
2020/12/18 13:56:50;;;;;;;9.77;6.30;;;;;;;9.00;100.00;101193.69;10138994;29;20044;-69
2020/12/18 14:01:57;;;;;;;7.07;5.28;;;;;;;8.93;100.00;101190.38;10122319;29;20045;-69
2020/12/18 14:07:00;;;;;;;9.77;5.32;;;;;;;8.78;100.00;101190.81;10137972;29;20056;-69
2020/12/18 14:12:01;;;;;;;8.27;4.60;;;;;;;8.73;100.00;101180.41;10121856;29;20059;-69
2020/12/18 14:17:02;;;;;;;6.32;4.10;;;;;;;8.62;100.00;101176.38;10138193;29;20100;-69
2020/12/18 14:22:04;;;;;;;6.45;3.33;;;;;;;8.71;100.00;101186.59;10136635;29;20690;-69
2020/12/18 14:27:05;;;;;;;3.88;2.13;;;;;;;9.00;100.00;101175.28;10137295;29;20055;-69
2020/12/18 14:32:07;;;;;;;3.38;1.92;;;;;;;8.86;100.00;101151.19;10137145;29;20056;-70
2020/12/18 14:37:12;;;;;;;4.95;1.98;;;;;;;8.98;100.00;101156.06;10126769;29;20119;-69
2020/12/18 14:42:13;;;;;;;4.22;1.98;;;;;;;8.56;100.00;101151.13;10121683;29;20059;-70
2020/12/18 14:47:15;;;;;;;3.88;1.88;;;;;;;8.66;100.00;101170.97;10133045;29;20383;-70
2020/12/18 14:52:16;;;;;;;5.10;2.03;;;;;;;8.45;100.00;101149.69;10118234;29;20541;-70
2020/12/18 14:57:17;;;;;;;6.03;3.50;;;;;;;8.52;100.00;101159.13;10133029;29;20068;-70
2020/12/18 15:02:19;;;;;;;5.95;2.20;;;;;;;7.83;100.00;101145.09;10124052;29;20409;-69
2020/12/18 15:07:20;;;;;;;5.40;2.55;;;;;;;7.18;100.00;101152.72;10114601;29;20045;-69
2020/12/18 15:12:21;;;;;;;5.82;3.70;;;;;;;6.88;100.00;101163.84;10105456;29;20397;-69
2020/12/18 15:17:22;;;;;;;8.07;4.45;;;;;;;6.91;100.00;101184.72;10134717;29;20051;-69
2020/12/18 15:22:23;;;;;;;6.50;4.05;;;;;;;6.67;100.00;101175.59;10136041;29;20049;-69
2020/12/18 15:27:24;;;;;;;8.07;4.22;;;;;;;6.67;100.00;101193.94;10135060;29;20438;-69
2020/12/18 15:32:25;;;;;;;10.25;4.13;;;;;;;6.70;100.00;101209.56;10133778;29;20404;-70
2020/12/18 15:37:26;;;;;;;8.20;4.57;;;;;;;6.72;100.00;101212.16;10134230;29;20256;-70
2020/12/18 15:42:28;;;;;;;6.95;4.50;;;;;;;6.44;100.00;101196.94;10134352;29;20053;-70
2020/12/18 15:47:30;;;;;;;8.10;4.85;;;;;;;6.46;100.00;101212.63;10108682;29;20056;-71
2020/12/18 15:52:31;;;;;;;6.93;4.15;;;;;;;6.62;100.00;101240.25;10131106;29;20055;-71
2020/12/18 15:57:33;;;;;;;8.70;4.70;;;;;;;6.48;100.00;101221.31;10133931;29;20045;-71
2020/12/18 16:02:34;;;;;;;7.85;4.53;;;;;;;6.60;100.00;101238.59;10134055;29;20045;-71
2020/12/18 16:07:35;;;;;;;6.38;4.03;;;;;;;6.60;100.00;101238.59;10133030;29;20493;-71
2020/12/18 16:12:36;;;;;;;5.97;4.22;;;;;;;6.56;100.00;101240.38;10138115;29;20044;-71
2020/12/18 16:17:37;;;;;;;10.80;4.70;;;;;;;6.47;100.00;101237.91;10115628;29;20454;-71
2020/12/18 16:22:38;;;;;;;8.32;4.50;;;;;;;6.44;100.00;101245.84;10134285;29;20043;-71
2020/12/18 16:27:39;;;;;;;7.60;3.90;;;;;;;6.37;100.00;101252.91;10135956;29;20044;-71
2020/12/18 16:32:41;;;;;;;7.93;5.03;;;;;;;6.41;100.00;101261.59;10133401;29;20402;-70
2020/12/18 16:37:42;;;;;;;7.47;3.90;;;;;;;6.36;100.00;101269.50;10132826;29;20045;-70
2020/12/18 16:42:44;;;;;;;6.68;3.95;;;;;;;6.26;100.00;101260.09;10133386;29;20119;-70
2020/12/18 16:47:46;;;;;;;7.47;4.30;;;;;;;6.09;100.00;101251.66;10133792;29;20068;-70
2020/12/18 16:52:47;;;;;;;7.50;5.03;;;;;;;6.15;100.00;101258.53;10128128;29;20048;-71
2020/12/18 16:57:48;;;;;;;10.50;6.22;;;;;;;6.02;100.00;101255.25;10133433;29;20036;-71
2020/12/18 17:02:56;;;;;;;7.07;4.40;;;;;;;6.03;100.00;101272.63;10138890;29;20052;-71
2020/12/18 17:07:57;;;;;;;6.57;4.22;;;;;;;6.03;100.00;101256.94;10139711;29;20056;-71
2020/12/18 17:12:59;;;;;;;8.43;5.63;;;;;;;5.89;100.00;101253.69;10129901;29;20496;-71
2020/12/18 17:18:00;;;;;;;8.23;5.30;;;;;;;5.86;100.00;101262.41;10121548;29;20056;-71
2020/12/18 17:23:01;;;;;;;8.50;5.63;;;;;;;5.80;100.00;101253.78;10138496;29;20048;-71
2020/12/18 17:28:02;;;;;;;9.68;5.45;;;;;;;5.70;100.00;101258.28;10139537;29;20413;-70
2020/12/18 17:33:17;;;;;;;7.20;4.97;;;;;;;5.58;100.00;101255.84;10139673;29;20059;-70
2020/12/18 17:38:18;;;;;;;6.85;5.60;;;;;;;5.42;100.00;101256.94;10138590;29;20400;-70
2020/12/18 17:43:19;;;;;;;8.73;6.10;;;;;;;5.32;100.00;101264.00;10139380;29;20059;-70
2020/12/18 17:48:21;;;;;;;8.73;6.30;;;;;;;5.27;100.00;101265.81;10137735;29;20501;-70
2020/12/18 17:53:22;;;;;;;9.45;6.53;;;;;;;5.07;100.00;101273.00;10121977;29;20064;-70
2020/12/18 17:58:23;;;;;;;9.25;6.80;;;;;;;5.01;100.00;101271.34;10138627;29;20124;-71
2020/12/18 18:03:31;;;;;;;8.60;6.68;;;;;;;5.01;100.00;101278.31;10126963;29;20442;-70
2020/12/18 18:08:34;;;;;;;9.13;7.45;;;;;;;5.05;100.00;101278.25;10136604;29;20052;-70
2020/12/18 18:13:38;;;;;;;11.57;8.15;;;;;;;5.00;100.00;101280.06;10134686;29;20045;-70
2020/12/18 18:18:40;;;;;;;11.35;7.03;;;;;;;4.97;100.00;101282.69;10136530;29;20051;-70
2020/12/18 18:23:41;;;;;;;11.32;7.72;;;;;;;4.99;100.00;101285.28;10135643;29;20060;-70
2020/12/18 18:28:42;;;;;;;10.65;6.65;;;;;;;5.02;100.00;101290.50;10137118;29;20056;-70
2020/12/18 18:33:47;;;;;;;9.88;7.70;;;;;;;5.04;100.00;101283.47;10120434;29;20063;-70
2020/12/18 18:38:49;;;;;;;8.80;7.38;;;;;;;5.15;100.00;101285.09;10116075;29;20072;-70
2020/12/18 18:43:50;;;;;;;9.15;7.97;;;;;;;5.24;100.00;101285.00;10123053;29;20055;-70
2020/12/18 18:48:51;;;;;;;10.50;7.90;;;;;;;5.17;100.00;101291.19;10135056;29;20075;-70
2020/12/18 18:53:52;;;;;;;11.38;8.98;;;;;;;5.13;100.00;101279.03;10135918;29;20053;-70
2020/12/18 18:58:54;;;;;;;11.73;8.20;;;;;;;5.02;100.00;101278.25;10135188;29;20135;-70
2020/12/18 19:04:11;;;;;;;11.18;8.63;;;;;;;5.03;100.00;101292.19;10134187;29;20072;-70
2020/12/18 19:09:12;;;;;;;14.00;10.20;;;;;;;5.06;100.00;101281.72;10133807;29;20505;-70
2020/12/18 19:14:14;;;;;;;12.35;9.07;;;;;;;4.97;100.00;101275.72;10134237;29;20152;-70
2020/12/18 19:19:15;;;;;;;12.35;8.85;;;;;;;5.06;100.00;101279.97;10134852;29;20044;-70
2020/12/18 19:24:17;;;;;;;11.93;9.48;;;;;;;4.97;100.00;101283.56;10134364;29;20124;-70
2020/12/18 19:29:18;;;;;;;10.90;9.20;;;;;;;4.93;100.00;101284.47;10118073;29;20052;-72
2020/12/18 19:34:23;;;;;;;12.10;9.38;;;;;;;4.79;100.00;101270.69;10134118;29;20060;-70
2020/12/18 19:39:25;;;;;;;14.68;9.98;;;;;;;4.73;100.00;101273.34;10130082;29;20052;-70
2020/12/18 19:44:26;;;;;;;15.90;11.57;;;;;;;4.85;100.00;101288.06;10134684;29;20504;-70
2020/12/18 19:49:27;;;;;;;14.45;11.60;;;;;;;4.75;100.00;101273.34;10136430;29;20374;-70
2020/12/18 19:54:29;;;;;;;16.48;10.35;;;;;;;4.75;100.00;101286.41;10132636;29;20409;-70
2020/12/18 19:59:30;;;;;;;15.05;12.63;;;;;;;4.68;100.00;101271.69;10139015;29;20048;-70
2020/12/18 20:04:41;;;;;;;16.70;11.70;;;;;;;4.55;100.00;101278.75;10131364;29;20044;-71
2020/12/18 20:09:42;;;;;;;16.63;12.23;;;;;;;4.52;100.00;101276.16;10134109;29;20055;-70
2020/12/18 20:14:44;;;;;;;16.27;13.40;;;;;;;4.47;100.00;101271.00;10132956;29;20422;-70
2020/12/18 20:19:45;;;;;;;19.30;12.30;;;;;;;4.51;100.00;101264.00;10132141;29;20104;-70
2020/12/18 20:24:46;;;;;;;20.75;13.30;;;;;;;4.69;100.00;101274.25;10138008;29;20041;-70
2020/12/18 20:29:47;;;;;;;17.55;14.00;;;;;;;4.66;100.00;101273.44;10130632;29;20476;-70
2020/12/18 20:35:02;;;;;;;19.95;14.23;;;;;;;4.46;100.00;101263.16;10141235;29;20048;-70
2020/12/18 20:40:06;;;;;;;21.85;15.80;;;;;;;4.39;100.00;101267.56;10138965;29;20048;-70
2020/12/18 20:45:12;;;;;;;20.50;15.23;;;;;;;4.40;100.00;101268.44;10140095;29;20060;-71
2020/12/18 20:50:13;;;;;;;19.92;16.02;;;;;;;4.35;100.00;101257.19;10137604;29;20148;-70
2020/12/18 20:55:14;;;;;;;21.88;15.80;;;;;;;4.39;100.00;101251.06;10139936;29;20057;-70
2020/12/18 21:00:16;;;;;;;24.33;18.25;;;;;;;4.42;100.00;101253.66;10139515;29;20048;-70
2020/12/18 21:05:20;;;;;;;21.25;17.92;;;;;;;4.49;100.00;101250.09;10123269;29;20063;-70
2020/12/18 21:10:22;;;;;;;21.40;16.02;;;;;;;4.41;100.00;101251.91;10131778;29;20489;-70
2020/12/18 21:15:23;;;;;;;20.10;16.27;;;;;;;4.24;100.00;101240.75;10111566;29;20384;-70
2020/12/18 21:20:24;;;;;;;18.75;15.07;;;;;;;4.33;100.00;101245.91;10141032;29;20043;-70
2020/12/18 21:25:26;;;;;;;19.73;15.48;;;;;;;4.39;100.00;101245.84;10122029;29;20048;-70
2020/12/18 21:30:47;;;;;;;22.58;16.13;;;;;;;4.32;100.00;101241.56;10124675;29;20560;-71
2020/12/18 21:35:49;;;;;;;19.83;14.93;;;;;;;4.36;100.00;101235.44;10139409;29;20071;-71
2020/12/18 21:40:50;;;;;;;18.95;14.57;;;;;;;4.29;100.00;101229.41;10132258;29;20055;-70
2020/12/18 21:45:52;;;;;;;19.60;15.38;;;;;;;4.25;100.00;101221.63;10134820;29;20054;-71
2020/12/18 21:50:53;;;;;;;23.02;18.30;;;;;;;4.26;100.00;101218.16;10148778;29;20051;-70
2020/12/18 21:55:54;;;;;;;23.13;16.50;;;;;;;4.33;100.00;101223.31;10136962;29;20047;-70
2020/12/18 22:00:56;;;;;;;19.58;15.30;;;;;;;4.36;100.00;101220.63;10137794;29;20068;-70
2020/12/18 22:06:00;;;;;;;21.58;16.02;;;;;;;4.32;100.00;101211.13;10124170;29;20057;-70
2020/12/18 22:11:01;;;;;;;19.92;14.77;;;;;;;4.23;100.00;101205.13;10128661;29;20048;-70
2020/12/18 22:16:07;;;;;;;20.55;15.88;;;;;;;4.27;100.00;101199.03;10136069;29;20045;-70
2020/12/18 22:21:09;;;;;;;23.45;17.15;;;;;;;4.25;100.00;101200.78;10135035;29;20492;-70
2020/12/18 22:26:10;;;;;;;24.33;17.15;;;;;;;4.29;100.00;101207.66;10130570;29;20481;-70
2020/12/18 22:31:11;;;;;;;26.52;17.27;;;;;;;4.24;100.00;101199.03;10139224;29;20056;-70
2020/12/18 22:36:17;;;;;;;24.17;17.08;;;;;;;4.23;100.00;101192.09;10123537;29;20124;-70
2020/12/18 22:41:19;;;;;;;25.48;16.88;;;;;;;4.22;100.00;101195.56;10134495;29;20113;-70
2020/12/18 22:46:20;;;;;;;26.25;15.95;;;;;;;4.16;100.00;101184.31;10135643;29;20044;-70
2020/12/18 22:51:21;;;;;;;25.75;16.60;;;;;;;4.31;100.00;101185.06;10133244;29;20420;-70
2020/12/18 22:56:23;;;;;;;25.30;18.13;;;;;;;4.24;100.00;101172.97;10134704;29;20497;-70
2020/12/18 23:01:24;;;;;;;24.73;18.63;;;;;;;4.11;100.00;101180.88;10130636;29;20529;-70
2020/12/18 23:06:32;;;;;;;26.20;18.95;;;;;;;3.92;100.00;101166.28;10135529;29;20053;-70
2020/12/18 23:11:33;;;;;;;31.58;20.38;;;;;;;3.87;100.00;101151.53;10132698;29;20041;-71